sensor_id;sensor_type;location;lat;lon;timestamp;P1;durP1;ratioP1;P2;durP2;ratioP2
49440;SDS011;35317;51.978;6.296;2022-12-31T00:04:04;5.25;;;3.92;;
49440;SDS011;35317;51.978;6.296;2022-12-31T00:09:06;4.78;;;3.90;;
49440;SDS011;35317;51.978;6.296;2022-12-31T00:14:07;4.47;;;2.92;;
49440;SDS011;35317;51.978;6.296;2022-12-31T00:19:09;2.90;;;2.55;;
49440;SDS011;35317;51.978;6.296;2022-12-31T00:24:11;7.07;;;3.38;;
49440;SDS011;35317;51.978;6.296;2022-12-31T00:29:12;8.32;;;4.57;;
49440;SDS011;35317;51.978;6.296;2022-12-31T00:34:12;6.22;;;4.18;;
49440;SDS011;35317;51.978;6.296;2022-12-31T00:39:13;7.57;;;5.80;;
49440;SDS011;35317;51.978;6.296;2022-12-31T00:44:14;7.13;;;5.97;;
49440;SDS011;35317;51.978;6.296;2022-12-31T00:49:15;9.00;;;5.72;;
49440;SDS011;35317;51.978;6.296;2022-12-31T00:54:16;17.45;;;7.25;;
49440;SDS011;35317;51.978;6.296;2022-12-31T00:59:16;12.52;;;6.35;;
49440;SDS011;35317;51.978;6.296;2022-12-31T01:04:18;10.38;;;6.43;;
49440;SDS011;35317;51.978;6.296;2022-12-31T01:09:20;7.50;;;5.57;;
49440;SDS011;35317;51.978;6.296;2022-12-31T01:14:21;6.32;;;5.72;;
49440;SDS011;35317;51.978;6.296;2022-12-31T01:19:23;5.97;;;5.38;;
49440;SDS011;35317;51.978;6.296;2022-12-31T01:24:26;7.07;;;5.13;;
49440;SDS011;35317;51.978;6.296;2022-12-31T01:29:27;9.10;;;5.63;;
49440;SDS011;35317;51.978;6.296;2022-12-31T01:34:28;3.90;;;3.38;;
49440;SDS011;35317;51.978;6.296;2022-12-31T01:39:29;3.38;;;1.90;;
49440;SDS011;35317;51.978;6.296;2022-12-31T01:54:44;6.47;;;2.10;;
49440;SDS011;35317;51.978;6.296;2022-12-31T01:59:51;2.47;;;1.70;;
49440;SDS011;35317;51.978;6.296;2022-12-31T02:04:54;6.30;;;2.28;;
49440;SDS011;35317;51.978;6.296;2022-12-31T02:09:58;7.10;;;2.53;;
49440;SDS011;35317;51.978;6.296;2022-12-31T02:14:59;4.78;;;2.78;;
49440;SDS011;35317;51.978;6.296;2022-12-31T02:31:23;8.50;;;3.75;;
49440;SDS011;35317;51.978;6.296;2022-12-31T02:36:36;7.88;;;4.03;;
49440;SDS011;35317;51.978;6.296;2022-12-31T02:41:40;6.22;;;3.78;;
49440;SDS011;35317;51.978;6.296;2022-12-31T02:58:12;6.97;;;4.40;;
49440;SDS011;35317;51.978;6.296;2022-12-31T03:03:54;10.05;;;4.40;;
49440;SDS011;35317;51.978;6.296;2022-12-31T03:09:15;9.77;;;5.05;;
49440;SDS011;35317;51.978;6.296;2022-12-31T03:14:16;7.80;;;4.57;;
49440;SDS011;35317;51.978;6.296;2022-12-31T03:19:17;9.27;;;5.25;;
49440;SDS011;35317;51.978;6.296;2022-12-31T03:24:43;9.60;;;5.55;;
49440;SDS011;35317;51.978;6.296;2022-12-31T03:30:03;11.98;;;6.22;;
49440;SDS011;35317;51.978;6.296;2022-12-31T03:35:04;14.90;;;7.43;;
49440;SDS011;35317;51.978;6.296;2022-12-31T03:40:07;14.30;;;6.82;;
49440;SDS011;35317;51.978;6.296;2022-12-31T03:45:11;15.73;;;7.57;;
49440;SDS011;35317;51.978;6.296;2022-12-31T03:50:13;18.90;;;7.75;;
49440;SDS011;35317;51.978;6.296;2022-12-31T03:55:16;25.13;;;9.50;;
49440;SDS011;35317;51.978;6.296;2022-12-31T04:00:17;31.35;;;11.38;;
49440;SDS011;35317;51.978;6.296;2022-12-31T04:05:21;25.02;;;10.90;;
49440;SDS011;35317;51.978;6.296;2022-12-31T04:10:22;41.13;;;13.02;;
49440;SDS011;35317;51.978;6.296;2022-12-31T04:15:23;32.95;;;11.38;;
49440;SDS011;35317;51.978;6.296;2022-12-31T04:20:24;32.78;;;11.57;;
49440;SDS011;35317;51.978;6.296;2022-12-31T04:25:24;47.97;;;13.50;;
49440;SDS011;35317;51.978;6.296;2022-12-31T04:30:25;42.28;;;13.60;;
49440;SDS011;35317;51.978;6.296;2022-12-31T04:35:26;27.33;;;9.90;;
49440;SDS011;35317;51.978;6.296;2022-12-31T04:40:26;31.90;;;9.93;;
49440;SDS011;35317;51.978;6.296;2022-12-31T04:45:27;20.45;;;8.70;;
49440;SDS011;35317;51.978;6.296;2022-12-31T04:50:28;20.42;;;8.45;;
49440;SDS011;35317;51.978;6.296;2022-12-31T04:55:29;28.60;;;9.52;;
49440;SDS011;35317;51.978;6.296;2022-12-31T05:00:30;23.13;;;9.05;;
49440;SDS011;35317;51.978;6.296;2022-12-31T05:05:30;26.45;;;9.00;;
49440;SDS011;35317;51.978;6.296;2022-12-31T05:10:31;20.58;;;7.72;;
49440;SDS011;35317;51.978;6.296;2022-12-31T05:15:32;16.50;;;6.57;;
49440;SDS011;35317;51.978;6.296;2022-12-31T05:20:33;8.15;;;4.30;;
49440;SDS011;35317;51.978;6.296;2022-12-31T05:25:34;6.40;;;3.13;;
49440;SDS011;35317;51.978;6.296;2022-12-31T05:30:35;6.88;;;2.97;;
49440;SDS011;35317;51.978;6.296;2022-12-31T05:35:36;4.55;;;2.40;;
49440;SDS011;35317;51.978;6.296;2022-12-31T05:40:37;9.10;;;2.22;;
49440;SDS011;35317;51.978;6.296;2022-12-31T05:45:38;3.60;;;2.20;;
49440;SDS011;35317;51.978;6.296;2022-12-31T05:50:38;5.10;;;2.50;;
49440;SDS011;35317;51.978;6.296;2022-12-31T05:55:39;2.85;;;1.98;;
49440;SDS011;35317;51.978;6.296;2022-12-31T06:00:40;3.78;;;1.73;;
49440;SDS011;35317;51.978;6.296;2022-12-31T06:05:41;2.38;;;1.42;;
49440;SDS011;35317;51.978;6.296;2022-12-31T06:10:42;1.75;;;1.27;;
49440;SDS011;35317;51.978;6.296;2022-12-31T06:15:43;1.85;;;1.48;;
49440;SDS011;35317;51.978;6.296;2022-12-31T06:20:44;4.25;;;1.40;;
49440;SDS011;35317;51.978;6.296;2022-12-31T06:25:44;1.40;;;1.10;;
49440;SDS011;35317;51.978;6.296;2022-12-31T06:30:45;3.40;;;2.17;;
49440;SDS011;35317;51.978;6.296;2022-12-31T06:35:46;0.70;;;0.70;;
49440;SDS011;35317;51.978;6.296;2022-12-31T06:40:47;0.88;;;0.60;;
49440;SDS011;35317;51.978;6.296;2022-12-31T06:45:48;0.82;;;0.50;;
49440;SDS011;35317;51.978;6.296;2022-12-31T06:50:49;1.23;;;0.55;;
49440;SDS011;35317;51.978;6.296;2022-12-31T06:55:49;2.28;;;0.60;;
49440;SDS011;35317;51.978;6.296;2022-12-31T07:06:29;2.42;;;0.50;;
49440;SDS011;35317;51.978;6.296;2022-12-31T07:11:39;0.88;;;0.60;;
49440;SDS011;35317;51.978;6.296;2022-12-31T07:22:32;2.25;;;1.42;;
49440;SDS011;35317;51.978;6.296;2022-12-31T07:38:48;2.88;;;1.80;;
49440;SDS011;35317;51.978;6.296;2022-12-31T07:44:04;2.38;;;1.85;;
49440;SDS011;35317;51.978;6.296;2022-12-31T07:49:12;2.20;;;1.75;;
49440;SDS011;35317;51.978;6.296;2022-12-31T07:54:16;5.30;;;2.38;;
49440;SDS011;35317;51.978;6.296;2022-12-31T08:05:14;6.18;;;1.48;;
49440;SDS011;35317;51.978;6.296;2022-12-31T08:16:12;1.95;;;0.90;;
49440;SDS011;35317;51.978;6.296;2022-12-31T08:26:52;6.43;;;0.88;;
49440;SDS011;35317;51.978;6.296;2022-12-31T08:32:16;6.65;;;1.10;;
49440;SDS011;35317;51.978;6.296;2022-12-31T08:42:50;9.90;;;0.90;;
49440;SDS011;35317;51.978;6.296;2022-12-31T08:53:29;3.88;;;0.70;;
49440;SDS011;35317;51.978;6.296;2022-12-31T08:58:35;2.05;;;0.70;;
49440;SDS011;35317;51.978;6.296;2022-12-31T09:19:46;1.73;;;0.95;;
49440;SDS011;35317;51.978;6.296;2022-12-31T09:24:47;1.88;;;1.15;;
49440;SDS011;35317;51.978;6.296;2022-12-31T09:29:51;6.88;;;2.28;;
49440;SDS011;35317;51.978;6.296;2022-12-31T09:56:36;7.25;;;2.10;;
49440;SDS011;35317;51.978;6.296;2022-12-31T10:01:48;7.78;;;3.13;;
49440;SDS011;35317;51.978;6.296;2022-12-31T10:07:17;7.78;;;2.88;;
49440;SDS011;35317;51.978;6.296;2022-12-31T10:12:54;8.60;;;2.55;;
49440;SDS011;35317;51.978;6.296;2022-12-31T10:45:43;9.80;;;4.30;;
49440;SDS011;35317;51.978;6.296;2022-12-31T10:51:18;9.00;;;5.25;;
49440;SDS011;35317;51.978;6.296;2022-12-31T10:56:50;11.05;;;4.45;;
49440;SDS011;35317;51.978;6.296;2022-12-31T11:13:39;8.48;;;4.63;;
49440;SDS011;35317;51.978;6.296;2022-12-31T11:19:13;10.65;;;4.45;;
49440;SDS011;35317;51.978;6.296;2022-12-31T11:41:04;19.92;;;2.80;;
49440;SDS011;35317;51.978;6.296;2022-12-31T11:51:47;9.35;;;2.63;;
49440;SDS011;35317;51.978;6.296;2022-12-31T11:57:37;11.93;;;3.58;;
49440;SDS011;35317;51.978;6.296;2022-12-31T12:07:45;7.38;;;1.80;;
49440;SDS011;35317;51.978;6.296;2022-12-31T12:12:47;8.80;;;2.38;;
49440;SDS011;35317;51.978;6.296;2022-12-31T12:17:54;6.05;;;1.83;;
49440;SDS011;35317;51.978;6.296;2022-12-31T12:22:59;6.72;;;1.50;;
49440;SDS011;35317;51.978;6.296;2022-12-31T12:33:23;5.15;;;1.70;;
49440;SDS011;35317;51.978;6.296;2022-12-31T12:38:24;7.47;;;2.53;;
49440;SDS011;35317;51.978;6.296;2022-12-31T12:43:25;7.20;;;2.05;;
49440;SDS011;35317;51.978;6.296;2022-12-31T12:48:45;12.10;;;3.13;;
49440;SDS011;35317;51.978;6.296;2022-12-31T12:53:57;8.35;;;2.60;;
49440;SDS011;35317;51.978;6.296;2022-12-31T12:59:42;5.95;;;2.08;;
49440;SDS011;35317;51.978;6.296;2022-12-31T13:26:44;11.95;;;6.03;;
49440;SDS011;35317;51.978;6.296;2022-12-31T13:32:19;9.65;;;2.72;;
49440;SDS011;35317;51.978;6.296;2022-12-31T13:37:39;6.70;;;2.90;;
49440;SDS011;35317;51.978;6.296;2022-12-31T13:42:42;6.63;;;2.72;;
49440;SDS011;35317;51.978;6.296;2022-12-31T13:47:53;10.95;;;3.08;;
49440;SDS011;35317;51.978;6.296;2022-12-31T13:58:28;7.53;;;2.28;;
49440;SDS011;35317;51.978;6.296;2022-12-31T14:09:05;10.75;;;5.40;;
49440;SDS011;35317;51.978;6.296;2022-12-31T14:14:22;12.07;;;4.80;;
49440;SDS011;35317;51.978;6.296;2022-12-31T14:19:47;8.20;;;3.40;;
49440;SDS011;35317;51.978;6.296;2022-12-31T14:24:54;9.57;;;2.20;;
49440;SDS011;35317;51.978;6.296;2022-12-31T14:30:20;10.98;;;3.42;;
49440;SDS011;35317;51.978;6.296;2022-12-31T14:46:57;6.57;;;2.53;;
49440;SDS011;35317;51.978;6.296;2022-12-31T14:58:28;11.18;;;3.25;;
49440;SDS011;35317;51.978;6.296;2022-12-31T15:03:37;8.85;;;2.50;;
49440;SDS011;35317;51.978;6.296;2022-12-31T15:08:45;11.73;;;3.58;;
49440;SDS011;35317;51.978;6.296;2022-12-31T15:25:00;10.60;;;3.47;;
49440;SDS011;35317;51.978;6.296;2022-12-31T15:30:02;10.05;;;2.80;;
49440;SDS011;35317;51.978;6.296;2022-12-31T15:40:21;10.32;;;3.42;;
49440;SDS011;35317;51.978;6.296;2022-12-31T15:45:31;12.00;;;2.83;;
49440;SDS011;35317;51.978;6.296;2022-12-31T15:50:36;21.60;;;7.93;;
49440;SDS011;35317;51.978;6.296;2022-12-31T15:55:42;15.57;;;5.50;;
49440;SDS011;35317;51.978;6.296;2022-12-31T16:06:14;10.23;;;4.32;;
49440;SDS011;35317;51.978;6.296;2022-12-31T16:11:16;26.35;;;11.10;;
49440;SDS011;35317;51.978;6.296;2022-12-31T16:16:30;19.60;;;7.07;;
49440;SDS011;35317;51.978;6.296;2022-12-31T16:21:36;14.07;;;5.93;;
49440;SDS011;35317;51.978;6.296;2022-12-31T16:26:41;13.07;;;3.78;;
49440;SDS011;35317;51.978;6.296;2022-12-31T16:31:46;13.13;;;3.97;;
49440;SDS011;35317;51.978;6.296;2022-12-31T16:36:59;10.60;;;4.67;;
49440;SDS011;35317;51.978;6.296;2022-12-31T16:47:30;15.20;;;5.82;;
49440;SDS011;35317;51.978;6.296;2022-12-31T16:52:41;15.02;;;6.25;;
49440;SDS011;35317;51.978;6.296;2022-12-31T16:57:45;21.35;;;12.00;;
49440;SDS011;35317;51.978;6.296;2022-12-31T17:03:04;13.25;;;5.43;;
49440;SDS011;35317;51.978;6.296;2022-12-31T17:08:23;25.10;;;14.73;;
49440;SDS011;35317;51.978;6.296;2022-12-31T17:18:52;7.03;;;4.10;;
49440;SDS011;35317;51.978;6.296;2022-12-31T17:23:54;21.33;;;10.02;;
49440;SDS011;35317;51.978;6.296;2022-12-31T17:29:00;67.53;;;38.13;;
49440;SDS011;35317;51.978;6.296;2022-12-31T17:39:15;27.05;;;12.80;;
49440;SDS011;35317;51.978;6.296;2022-12-31T17:44:19;11.73;;;7.50;;
49440;SDS011;35317;51.978;6.296;2022-12-31T17:49:25;18.20;;;9.55;;
49440;SDS011;35317;51.978;6.296;2022-12-31T17:54:29;13.27;;;7.28;;
49440;SDS011;35317;51.978;6.296;2022-12-31T17:59:30;27.02;;;13.00;;
49440;SDS011;35317;51.978;6.296;2022-12-31T18:04:32;12.05;;;5.50;;
49440;SDS011;35317;51.978;6.296;2022-12-31T18:09:36;14.63;;;7.43;;
49440;SDS011;35317;51.978;6.296;2022-12-31T18:14:36;13.77;;;6.30;;
49440;SDS011;35317;51.978;6.296;2022-12-31T18:19:44;17.88;;;10.55;;
49440;SDS011;35317;51.978;6.296;2022-12-31T18:24:45;15.77;;;9.18;;
49440;SDS011;35317;51.978;6.296;2022-12-31T18:29:50;15.18;;;7.18;;
49440;SDS011;35317;51.978;6.296;2022-12-31T18:34:51;17.48;;;5.72;;
49440;SDS011;35317;51.978;6.296;2022-12-31T18:39:52;16.33;;;7.05;;
49440;SDS011;35317;51.978;6.296;2022-12-31T18:44:52;14.63;;;6.85;;
49440;SDS011;35317;51.978;6.296;2022-12-31T18:49:54;8.88;;;4.25;;
49440;SDS011;35317;51.978;6.296;2022-12-31T18:54:54;11.68;;;4.03;;
49440;SDS011;35317;51.978;6.296;2022-12-31T18:59:55;15.50;;;6.03;;
49440;SDS011;35317;51.978;6.296;2022-12-31T19:04:56;14.63;;;4.25;;
49440;SDS011;35317;51.978;6.296;2022-12-31T19:09:56;13.40;;;5.70;;
49440;SDS011;35317;51.978;6.296;2022-12-31T19:14:57;18.33;;;7.05;;
49440;SDS011;35317;51.978;6.296;2022-12-31T19:19:58;16.30;;;5.85;;
49440;SDS011;35317;51.978;6.296;2022-12-31T19:25:10;37.45;;;18.95;;
49440;SDS011;35317;51.978;6.296;2022-12-31T19:30:26;39.50;;;23.23;;
49440;SDS011;35317;51.978;6.296;2022-12-31T19:35:30;19.55;;;7.47;;
49440;SDS011;35317;51.978;6.296;2022-12-31T19:40:31;16.73;;;7.90;;
49440;SDS011;35317;51.978;6.296;2022-12-31T19:45:32;23.77;;;12.05;;
49440;SDS011;35317;51.978;6.296;2022-12-31T19:50:32;14.93;;;7.65;;
49440;SDS011;35317;51.978;6.296;2022-12-31T19:55:33;37.88;;;22.50;;
49440;SDS011;35317;51.978;6.296;2022-12-31T20:00:34;21.02;;;8.15;;
49440;SDS011;35317;51.978;6.296;2022-12-31T20:05:35;16.05;;;5.82;;
49440;SDS011;35317;51.978;6.296;2022-12-31T20:10:36;12.77;;;4.03;;
49440;SDS011;35317;51.978;6.296;2022-12-31T20:15:37;15.55;;;5.40;;
49440;SDS011;35317;51.978;6.296;2022-12-31T20:20:38;10.85;;;3.60;;
49440;SDS011;35317;51.978;6.296;2022-12-31T20:25:54;11.90;;;3.33;;
49440;SDS011;35317;51.978;6.296;2022-12-31T20:30:57;19.88;;;8.65;;
49440;SDS011;35317;51.978;6.296;2022-12-31T20:36:00;16.92;;;4.90;;
49440;SDS011;35317;51.978;6.296;2022-12-31T20:41:06;16.45;;;5.47;;
49440;SDS011;35317;51.978;6.296;2022-12-31T20:46:14;16.50;;;3.65;;
49440;SDS011;35317;51.978;6.296;2022-12-31T20:51:21;18.45;;;5.40;;
49440;SDS011;35317;51.978;6.296;2022-12-31T20:56:24;15.00;;;4.28;;
49440;SDS011;35317;51.978;6.296;2022-12-31T21:01:27;18.83;;;8.10;;
49440;SDS011;35317;51.978;6.296;2022-12-31T21:06:29;20.48;;;6.30;;
49440;SDS011;35317;51.978;6.296;2022-12-31T21:11:30;13.73;;;4.18;;
49440;SDS011;35317;51.978;6.296;2022-12-31T21:16:50;14.68;;;5.38;;
49440;SDS011;35317;51.978;6.296;2022-12-31T21:21:50;21.02;;;9.75;;
49440;SDS011;35317;51.978;6.296;2022-12-31T21:26:54;11.50;;;3.50;;
49440;SDS011;35317;51.978;6.296;2022-12-31T21:31:55;12.48;;;4.03;;
49440;SDS011;35317;51.978;6.296;2022-12-31T21:36:56;14.85;;;5.53;;
49440;SDS011;35317;51.978;6.296;2022-12-31T21:41:56;12.60;;;5.25;;
49440;SDS011;35317;51.978;6.296;2022-12-31T21:46:58;22.63;;;7.90;;
49440;SDS011;35317;51.978;6.296;2022-12-31T21:52:19;16.48;;;5.75;;
49440;SDS011;35317;51.978;6.296;2022-12-31T21:57:25;17.08;;;6.07;;
49440;SDS011;35317;51.978;6.296;2022-12-31T22:02:26;37.40;;;19.30;;
49440;SDS011;35317;51.978;6.296;2022-12-31T22:07:45;28.92;;;13.23;;
49440;SDS011;35317;51.978;6.296;2022-12-31T22:12:46;34.30;;;16.60;;
49440;SDS011;35317;51.978;6.296;2022-12-31T22:17:47;28.50;;;10.50;;
49440;SDS011;35317;51.978;6.296;2022-12-31T22:22:48;16.08;;;7.03;;
49440;SDS011;35317;51.978;6.296;2022-12-31T22:27:48;22.92;;;6.82;;
49440;SDS011;35317;51.978;6.296;2022-12-31T22:32:49;28.67;;;14.68;;
49440;SDS011;35317;51.978;6.296;2022-12-31T22:37:50;80.15;;;42.38;;
49440;SDS011;35317;51.978;6.296;2022-12-31T22:42:51;29.75;;;12.13;;
49440;SDS011;35317;51.978;6.296;2022-12-31T22:47:52;148.73;;;76.20;;
49440;SDS011;35317;51.978;6.296;2022-12-31T22:52:52;38.20;;;18.42;;
49440;SDS011;35317;51.978;6.296;2022-12-31T22:57:53;36.70;;;19.55;;
49440;SDS011;35317;51.978;6.296;2022-12-31T23:02:54;166.52;;;96.88;;
49440;SDS011;35317;51.978;6.296;2022-12-31T23:07:55;200.38;;;115.80;;
49440;SDS011;35317;51.978;6.296;2022-12-31T23:13:01;157.43;;;90.32;;
49440;SDS011;35317;51.978;6.296;2022-12-31T23:18:21;163.60;;;101.32;;
49440;SDS011;35317;51.978;6.296;2022-12-31T23:23:40;83.60;;;47.88;;
49440;SDS011;35317;51.978;6.296;2022-12-31T23:28:41;52.05;;;31.90;;
49440;SDS011;35317;51.978;6.296;2022-12-31T23:33:43;40.15;;;17.98;;
49440;SDS011;35317;51.978;6.296;2022-12-31T23:38:43;33.55;;;15.80;;
49440;SDS011;35317;51.978;6.296;2022-12-31T23:43:44;32.83;;;16.05;;
49440;SDS011;35317;51.978;6.296;2022-12-31T23:48:45;24.13;;;9.52;;
49440;SDS011;35317;51.978;6.296;2022-12-31T23:53:46;24.48;;;9.27;;
49440;SDS011;35317;51.978;6.296;2022-12-31T23:58:47;17.08;;;7.70;;
